KAHN/AHN METAR and TAF weather

Enter ICAO airport designator
Station Type Date Time Source
KAHN METAR 2018/07/21 11:42 UTC NOAA

KAHN 211142Z AUTO 01009G20KT 1 3/4SM +TSRA BR FEW008 BKN035 OVC043 21/21 A2996 RMK AO2 LTG DSNT ALQDS RAB18 TSB18E33B34 P0014 T02060206


Station Type Date Time Source
KAHN Decoded METAR 2018/07/21 11:42 UTC NOAA

ATHENS BEN EPPS AIRPORT, GA, United States (KAHN) 33-57N 083-20W 244M
Jul 21, 2018 - 07:42 AM EDT / 2018.07.21 1142 UTC
Wind: from the N (010 degrees) at 10 MPH (9 KT) gusting to 23 MPH (20 KT):0
Visibility: 1 3/4 mile(s):0
Sky conditions: overcast
Weather: heavy rain with thunder; mist; Lightning observed
Precipitation last hour: 0.14 inches
Temperature: 69.1 F (20.6 C)
Dew Point: 69.1 F (20.6 C)
Relative Humidity: 100%
Pressure (altimeter): 29.96 in. Hg (1014 hPa)
ob: KAHN 211142Z AUTO 01009G20KT 1 3/4SM +TSRA BR FEW008 BKN035 OVC043 21/21 A2996 RMK AO2 LTG DSNT ALQDS RAB18 TSB18E33B34 P0014 T02060206
cycle: 11

Station Type Date Time Source
KAHN TAF 2018/07/21 12:30 UTC NOAA

TAF KAHN 211128Z 2112/2212 22006KT P6SM SCT030 BKN080
TEMPO 2112/2113 VRB15G30KT 2SM TSRA BKN025CB
FM211300 02008KT P6SM -RA VCTS BKN030CB
FM211500 32007KT P6SM BKN040
FM211800 25011KT P6SM SCT050 PROB30 2122/2202 4SM TSRA BKN025CB
FM220200 27008KT P6SM SCT250


Example: see airport list